sensor_id;sensor_type;location;lat;lon;timestamp;pressure;altitude;pressure_sealevel;temperature
68446;BMP280;35789;48.414;12.768;2023-12-07T00:00:00;97200.0;;;
68446;BMP280;35789;48.414;12.768;2023-12-07T00:05:00;97200.0;;;
68446;BMP280;35789;48.414;12.768;2023-12-07T00:10:00;97210.0;;;
68446;BMP280;35789;48.414;12.768;2023-12-07T00:15:00;97220.0;;;
68446;BMP280;35789;48.414;12.768;2023-12-07T00:20:01;97220.0;;;
68446;BMP280;35789;48.414;12.768;2023-12-07T00:25:00;97220.0;;;
68446;BMP280;35789;48.414;12.768;2023-12-07T00:30:00;97220.0;;;
68446;BMP280;35789;48.414;12.768;2023-12-07T00:35:00;97220.0;;;
68446;BMP280;35789;48.414;12.768;2023-12-07T00:40:00;97220.0;;;
68446;BMP280;35789;48.414;12.768;2023-12-07T00:45:00;97220.0;;;
68446;BMP280;35789;48.414;12.768;2023-12-07T00:50:00;97220.0;;;
68446;BMP280;35789;48.414;12.768;2023-12-07T00:55:00;97220.0;;;
68446;BMP280;35789;48.414;12.768;2023-12-07T01:00:00;97230.0;;;
68446;BMP280;35789;48.414;12.768;2023-12-07T01:05:00;97230.0;;;
68446;BMP280;35789;48.414;12.768;2023-12-07T01:10:00;97230.0;;;
68446;BMP280;35789;48.414;12.768;2023-12-07T01:15:00;97240.0;;;
68446;BMP280;35789;48.414;12.768;2023-12-07T01:20:00;97240.0;;;
68446;BMP280;35789;48.414;12.768;2023-12-07T01:25:00;97250.0;;;
68446;BMP280;35789;48.414;12.768;2023-12-07T01:30:00;97250.0;;;
68446;BMP280;35789;48.414;12.768;2023-12-07T01:35:00;97260.0;;;
68446;BMP280;35789;48.414;12.768;2023-12-07T01:40:00;97260.0;;;
68446;BMP280;35789;48.414;12.768;2023-12-07T01:45:00;97260.0;;;
68446;BMP280;35789;48.414;12.768;2023-12-07T01:50:02;97260.0;;;
68446;BMP280;35789;48.414;12.768;2023-12-07T01:55:00;97270.0;;;
68446;BMP280;35789;48.414;12.768;2023-12-07T02:00:00;97270.0;;;
68446;BMP280;35789;48.414;12.768;2023-12-07T02:05:00;97280.0;;;
68446;BMP280;35789;48.414;12.768;2023-12-07T02:10:00;97290.0;;;
68446;BMP280;35789;48.414;12.768;2023-12-07T02:15:01;97290.0;;;
68446;BMP280;35789;48.414;12.768;2023-12-07T02:20:06;97290.0;;;
68446;BMP280;35789;48.414;12.768;2023-12-07T02:25:06;97290.0;;;
68446;BMP280;35789;48.414;12.768;2023-12-07T02:30:00;97290.0;;;
68446;BMP280;35789;48.414;12.768;2023-12-07T02:35:01;97290.0;;;
68446;BMP280;35789;48.414;12.768;2023-12-07T02:40:00;97290.0;;;
68446;BMP280;35789;48.414;12.768;2023-12-07T02:45:01;97290.0;;;
68446;BMP280;35789;48.414;12.768;2023-12-07T02:50:00;97300.0;;;
68446;BMP280;35789;48.414;12.768;2023-12-07T02:55:00;97300.0;;;
68446;BMP280;35789;48.414;12.768;2023-12-07T03:00:00;97300.0;;;
68446;BMP280;35789;48.414;12.768;2023-12-07T03:05:00;97300.0;;;
68446;BMP280;35789;48.414;12.768;2023-12-07T03:10:00;97300.0;;;
68446;BMP280;35789;48.414;12.768;2023-12-07T03:15:00;97310.0;;;
68446;BMP280;35789;48.414;12.768;2023-12-07T03:20:00;97310.0;;;
68446;BMP280;35789;48.414;12.768;2023-12-07T03:25:00;97320.0;;;
68446;BMP280;35789;48.414;12.768;2023-12-07T03:30:00;97320.0;;;
68446;BMP280;35789;48.414;12.768;2023-12-07T03:35:00;97340.0;;;
68446;BMP280;35789;48.414;12.768;2023-12-07T03:40:00;97340.0;;;
68446;BMP280;35789;48.414;12.768;2023-12-07T03:45:00;97340.0;;;
68446;BMP280;35789;48.414;12.768;2023-12-07T03:50:00;97340.0;;;
68446;BMP280;35789;48.414;12.768;2023-12-07T03:55:00;97350.0;;;
68446;BMP280;35789;48.414;12.768;2023-12-07T04:00:00;97350.0;;;
68446;BMP280;35789;48.414;12.768;2023-12-07T04:05:00;97340.0;;;
68446;BMP280;35789;48.414;12.768;2023-12-07T04:10:00;97350.0;;;
68446;BMP280;35789;48.414;12.768;2023-12-07T04:15:00;97350.0;;;
68446;BMP280;35789;48.414;12.768;2023-12-07T04:20:00;97360.0;;;
68446;BMP280;35789;48.414;12.768;2023-12-07T04:25:00;97360.0;;;
68446;BMP280;35789;48.414;12.768;2023-12-07T04:30:00;97360.0;;;
68446;BMP280;35789;48.414;12.768;2023-12-07T04:35:00;97370.0;;;
68446;BMP280;35789;48.414;12.768;2023-12-07T04:40:00;97370.0;;;
68446;BMP280;35789;48.414;12.768;2023-12-07T04:45:00;97380.0;;;
68446;BMP280;35789;48.414;12.768;2023-12-07T04:50:00;97380.0;;;
68446;BMP280;35789;48.414;12.768;2023-12-07T04:55:00;97390.0;;;
68446;BMP280;35789;48.414;12.768;2023-12-07T05:00:00;97390.0;;;
68446;BMP280;35789;48.414;12.768;2023-12-07T05:05:00;97400.0;;;
68446;BMP280;35789;48.414;12.768;2023-12-07T05:10:00;97410.0;;;
68446;BMP280;35789;48.414;12.768;2023-12-07T05:15:00;97400.0;;;
68446;BMP280;35789;48.414;12.768;2023-12-07T05:20:00;97400.0;;;
68446;BMP280;35789;48.414;12.768;2023-12-07T05:25:00;97400.0;;;
68446;BMP280;35789;48.414;12.768;2023-12-07T05:30:00;97410.0;;;
68446;BMP280;35789;48.414;12.768;2023-12-07T05:35:00;97400.0;;;
68446;BMP280;35789;48.414;12.768;2023-12-07T05:40:00;97410.0;;;
68446;BMP280;35789;48.414;12.768;2023-12-07T05:45:00;97410.0;;;
68446;BMP280;35789;48.414;12.768;2023-12-07T05:50:00;97410.0;;;
68446;BMP280;35789;48.414;12.768;2023-12-07T05:55:00;97410.0;;;
68446;BMP280;35789;48.414;12.768;2023-12-07T06:00:00;97420.0;;;
68446;BMP280;35789;48.414;12.768;2023-12-07T06:05:00;97410.0;;;
68446;BMP280;35789;48.414;12.768;2023-12-07T06:10:00;97420.0;;;
68446;BMP280;35789;48.414;12.768;2023-12-07T06:15:00;97420.0;;;
68446;BMP280;35789;48.414;12.768;2023-12-07T06:20:00;97420.0;;;
68446;BMP280;35789;48.414;12.768;2023-12-07T06:25:00;97420.0;;;
68446;BMP280;35789;48.414;12.768;2023-12-07T06:30:00;97430.0;;;
68446;BMP280;35789;48.414;12.768;2023-12-07T06:35:00;97430.0;;;
68446;BMP280;35789;48.414;12.768;2023-12-07T06:40:00;97430.0;;;
68446;BMP280;35789;48.414;12.768;2023-12-07T06:45:01;97440.0;;;
68446;BMP280;35789;48.414;12.768;2023-12-07T06:50:00;97440.0;;;
68446;BMP280;35789;48.414;12.768;2023-12-07T06:55:00;97440.0;;;
68446;BMP280;35789;48.414;12.768;2023-12-07T07:00:00;97440.0;;;
68446;BMP280;35789;48.414;12.768;2023-12-07T07:05:00;97440.0;;;
68446;BMP280;35789;48.414;12.768;2023-12-07T07:10:00;97440.0;;;
68446;BMP280;35789;48.414;12.768;2023-12-07T07:15:00;97440.0;;;
68446;BMP280;35789;48.414;12.768;2023-12-07T07:20:00;97440.0;;;
68446;BMP280;35789;48.414;12.768;2023-12-07T07:25:00;97440.0;;;
68446;BMP280;35789;48.414;12.768;2023-12-07T07:30:00;97440.0;;;
68446;BMP280;35789;48.414;12.768;2023-12-07T07:35:00;97440.0;;;
68446;BMP280;35789;48.414;12.768;2023-12-07T07:40:00;97440.0;;;
68446;BMP280;35789;48.414;12.768;2023-12-07T07:45:00;97440.0;;;
68446;BMP280;35789;48.414;12.768;2023-12-07T07:50:00;97450.0;;;
68446;BMP280;35789;48.414;12.768;2023-12-07T07:55:00;97450.0;;;
68446;BMP280;35789;48.414;12.768;2023-12-07T08:00:00;97460.0;;;
68446;BMP280;35789;48.414;12.768;2023-12-07T08:05:00;97460.0;;;
68446;BMP280;35789;48.414;12.768;2023-12-07T08:10:00;97450.0;;;
68446;BMP280;35789;48.414;12.768;2023-12-07T08:15:00;97460.0;;;
68446;BMP280;35789;48.414;12.768;2023-12-07T08:20:00;97460.0;;;
68446;BMP280;35789;48.414;12.768;2023-12-07T08:25:00;97460.0;;;
68446;BMP280;35789;48.414;12.768;2023-12-07T08:30:03;97460.0;;;
68446;BMP280;35789;48.414;12.768;2023-12-07T08:35:00;97460.0;;;
68446;BMP280;35789;48.414;12.768;2023-12-07T08:40:00;97470.0;;;
68446;BMP280;35789;48.414;12.768;2023-12-07T08:45:00;97460.0;;;
68446;BMP280;35789;48.414;12.768;2023-12-07T08:50:00;97460.0;;;
68446;BMP280;35789;48.414;12.768;2023-12-07T08:55:00;97460.0;;;
68446;BMP280;35789;48.414;12.768;2023-12-07T09:00:00;97460.0;;;
68446;BMP280;35789;48.414;12.768;2023-12-07T09:05:00;97460.0;;;
68446;BMP280;35789;48.414;12.768;2023-12-07T09:10:00;97450.0;;;
68446;BMP280;35789;48.414;12.768;2023-12-07T09:15:00;97450.0;;;
68446;BMP280;35789;48.414;12.768;2023-12-07T09:20:00;97450.0;;;
68446;BMP280;35789;48.414;12.768;2023-12-07T09:25:00;97450.0;;;
68446;BMP280;35789;48.414;12.768;2023-12-07T09:30:00;97450.0;;;
68446;BMP280;35789;48.414;12.768;2023-12-07T09:35:00;97450.0;;;
68446;BMP280;35789;48.414;12.768;2023-12-07T09:40:00;97450.0;;;
68446;BMP280;35789;48.414;12.768;2023-12-07T09:45:00;97450.0;;;
68446;BMP280;35789;48.414;12.768;2023-12-07T09:50:01;97440.0;;;
68446;BMP280;35789;48.414;12.768;2023-12-07T09:55:02;97440.0;;;
68446;BMP280;35789;48.414;12.768;2023-12-07T10:00:00;97430.0;;;
68446;BMP280;35789;48.414;12.768;2023-12-07T10:05:04;97430.0;;;
68446;BMP280;35789;48.414;12.768;2023-12-07T10:10:00;97440.0;;;
68446;BMP280;35789;48.414;12.768;2023-12-07T10:15:00;97430.0;;;
68446;BMP280;35789;48.414;12.768;2023-12-07T10:20:08;97430.0;;;
68446;BMP280;35789;48.414;12.768;2023-12-07T10:25:00;97430.0;;;
68446;BMP280;35789;48.414;12.768;2023-12-07T10:30:00;97430.0;;;
68446;BMP280;35789;48.414;12.768;2023-12-07T10:35:00;97420.0;;;
68446;BMP280;35789;48.414;12.768;2023-12-07T10:40:00;97430.0;;;
68446;BMP280;35789;48.414;12.768;2023-12-07T10:45:05;97420.0;;;
68446;BMP280;35789;48.414;12.768;2023-12-07T10:50:02;97420.0;;;
68446;BMP280;35789;48.414;12.768;2023-12-07T10:55:03;97410.0;;;
68446;BMP280;35789;48.414;12.768;2023-12-07T11:00:01;97400.0;;;
68446;BMP280;35789;48.414;12.768;2023-12-07T11:05:02;97410.0;;;
68446;BMP280;35789;48.414;12.768;2023-12-07T11:10:12;97410.0;;;
68446;BMP280;35789;48.414;12.768;2023-12-07T11:15:01;97390.0;;;
68446;BMP280;35789;48.414;12.768;2023-12-07T11:20:00;97400.0;;;
68446;BMP280;35789;48.414;12.768;2023-12-07T11:25:00;97380.0;;;
68446;BMP280;35789;48.414;12.768;2023-12-07T11:30:03;97390.0;;;
68446;BMP280;35789;48.414;12.768;2023-12-07T11:35:03;97380.0;;;
68446;BMP280;35789;48.414;12.768;2023-12-07T11:40:00;97370.0;;;
68446;BMP280;35789;48.414;12.768;2023-12-07T11:45:01;97370.0;;;
68446;BMP280;35789;48.414;12.768;2023-12-07T11:50:03;97380.0;;;
68446;BMP280;35789;48.414;12.768;2023-12-07T11:55:00;97380.0;;;
68446;BMP280;35789;48.414;12.768;2023-12-07T12:00:00;97370.0;;;
68446;BMP280;35789;48.414;12.768;2023-12-07T12:05:00;97380.0;;;
68446;BMP280;35789;48.414;12.768;2023-12-07T12:10:02;97360.0;;;
68446;BMP280;35789;48.414;12.768;2023-12-07T12:15:00;97360.0;;;
68446;BMP280;35789;48.414;12.768;2023-12-07T12:20:00;97360.0;;;
68446;BMP280;35789;48.414;12.768;2023-12-07T12:25:00;97350.0;;;
68446;BMP280;35789;48.414;12.768;2023-12-07T12:30:01;97350.0;;;
68446;BMP280;35789;48.414;12.768;2023-12-07T12:35:00;97350.0;;;
68446;BMP280;35789;48.414;12.768;2023-12-07T12:40:06;97350.0;;;
68446;BMP280;35789;48.414;12.768;2023-12-07T12:45:00;97350.0;;;
68446;BMP280;35789;48.414;12.768;2023-12-07T12:50:00;97350.0;;;
68446;BMP280;35789;48.414;12.768;2023-12-07T12:55:00;97350.0;;;
68446;BMP280;35789;48.414;12.768;2023-12-07T13:00:01;97340.0;;;
68446;BMP280;35789;48.414;12.768;2023-12-07T13:05:00;97340.0;;;
68446;BMP280;35789;48.414;12.768;2023-12-07T13:10:00;97340.0;;;
68446;BMP280;35789;48.414;12.768;2023-12-07T13:15:00;97330.0;;;
68446;BMP280;35789;48.414;12.768;2023-12-07T13:20:00;97330.0;;;
68446;BMP280;35789;48.414;12.768;2023-12-07T13:25:00;97320.0;;;
68446;BMP280;35789;48.414;12.768;2023-12-07T13:30:00;97310.0;;;
68446;BMP280;35789;48.414;12.768;2023-12-07T13:35:00;97310.0;;;
68446;BMP280;35789;48.414;12.768;2023-12-07T13:40:00;97300.0;;;
68446;BMP280;35789;48.414;12.768;2023-12-07T13:45:00;97300.0;;;
68446;BMP280;35789;48.414;12.768;2023-12-07T13:50:01;97290.0;;;
68446;BMP280;35789;48.414;12.768;2023-12-07T13:55:00;97290.0;;;
68446;BMP280;35789;48.414;12.768;2023-12-07T14:00:00;97290.0;;;
68446;BMP280;35789;48.414;12.768;2023-12-07T14:05:00;97280.0;;;
68446;BMP280;35789;48.414;12.768;2023-12-07T14:10:00;97290.0;;;
68446;BMP280;35789;48.414;12.768;2023-12-07T14:15:00;97300.0;;;
68446;BMP280;35789;48.414;12.768;2023-12-07T14:20:00;97290.0;;;
68446;BMP280;35789;48.414;12.768;2023-12-07T14:25:00;97290.0;;;
68446;BMP280;35789;48.414;12.768;2023-12-07T14:30:00;97290.0;;;
68446;BMP280;35789;48.414;12.768;2023-12-07T14:35:00;97280.0;;;
68446;BMP280;35789;48.414;12.768;2023-12-07T14:40:00;97270.0;;;
68446;BMP280;35789;48.414;12.768;2023-12-07T14:45:00;97270.0;;;
68446;BMP280;35789;48.414;12.768;2023-12-07T14:50:00;97260.0;;;
68446;BMP280;35789;48.414;12.768;2023-12-07T14:55:00;97270.0;;;
68446;BMP280;35789;48.414;12.768;2023-12-07T15:00:00;97260.0;;;
68446;BMP280;35789;48.414;12.768;2023-12-07T15:05:00;97260.0;;;
68446;BMP280;35789;48.414;12.768;2023-12-07T15:10:00;97270.0;;;
68446;BMP280;35789;48.414;12.768;2023-12-07T15:15:00;97270.0;;;
68446;BMP280;35789;48.414;12.768;2023-12-07T15:20:00;97270.0;;;
68446;BMP280;35789;48.414;12.768;2023-12-07T15:25:00;97270.0;;;
68446;BMP280;35789;48.414;12.768;2023-12-07T15:30:00;97270.0;;;
68446;BMP280;35789;48.414;12.768;2023-12-07T15:35:00;97260.0;;;
68446;BMP280;35789;48.414;12.768;2023-12-07T15:40:00;97260.0;;;
68446;BMP280;35789;48.414;12.768;2023-12-07T15:45:00;97260.0;;;
68446;BMP280;35789;48.414;12.768;2023-12-07T15:50:00;97260.0;;;
68446;BMP280;35789;48.414;12.768;2023-12-07T15:55:00;97250.0;;;
68446;BMP280;35789;48.414;12.768;2023-12-07T16:00:00;97250.0;;;
68446;BMP280;35789;48.414;12.768;2023-12-07T16:05:00;97240.0;;;
68446;BMP280;35789;48.414;12.768;2023-12-07T16:10:00;97240.0;;;
68446;BMP280;35789;48.414;12.768;2023-12-07T16:15:00;97250.0;;;
68446;BMP280;35789;48.414;12.768;2023-12-07T16:20:01;97240.0;;;
68446;BMP280;35789;48.414;12.768;2023-12-07T16:25:00;97250.0;;;
68446;BMP280;35789;48.414;12.768;2023-12-07T16:30:00;97250.0;;;
68446;BMP280;35789;48.414;12.768;2023-12-07T16:35:00;97250.0;;;
68446;BMP280;35789;48.414;12.768;2023-12-07T16:40:00;97250.0;;;
68446;BMP280;35789;48.414;12.768;2023-12-07T16:45:00;97250.0;;;
68446;BMP280;35789;48.414;12.768;2023-12-07T16:50:00;97250.0;;;
68446;BMP280;35789;48.414;12.768;2023-12-07T16:55:00;97240.0;;;
68446;BMP280;35789;48.414;12.768;2023-12-07T17:00:00;97250.0;;;
68446;BMP280;35789;48.414;12.768;2023-12-07T17:05:00;97240.0;;;
68446;BMP280;35789;48.414;12.768;2023-12-07T17:10:00;97240.0;;;
68446;BMP280;35789;48.414;12.768;2023-12-07T17:15:00;97240.0;;;
68446;BMP280;35789;48.414;12.768;2023-12-07T17:20:00;97250.0;;;
68446;BMP280;35789;48.414;12.768;2023-12-07T17:25:00;97250.0;;;
68446;BMP280;35789;48.414;12.768;2023-12-07T17:30:01;97240.0;;;
68446;BMP280;35789;48.414;12.768;2023-12-07T17:35:00;97240.0;;;
68446;BMP280;35789;48.414;12.768;2023-12-07T17:40:00;97230.0;;;
68446;BMP280;35789;48.414;12.768;2023-12-07T17:45:00;97240.0;;;
68446;BMP280;35789;48.414;12.768;2023-12-07T17:50:00;97240.0;;;
68446;BMP280;35789;48.414;12.768;2023-12-07T17:55:00;97240.0;;;
68446;BMP280;35789;48.414;12.768;2023-12-07T18:00:00;97230.0;;;
68446;BMP280;35789;48.414;12.768;2023-12-07T18:05:00;97230.0;;;
68446;BMP280;35789;48.414;12.768;2023-12-07T18:10:00;97230.0;;;
68446;BMP280;35789;48.414;12.768;2023-12-07T18:15:00;97220.0;;;
68446;BMP280;35789;48.414;12.768;2023-12-07T18:20:00;97210.0;;;
68446;BMP280;35789;48.414;12.768;2023-12-07T18:25:00;97190.0;;;
68446;BMP280;35789;48.414;12.768;2023-12-07T18:30:00;97190.0;;;
68446;BMP280;35789;48.414;12.768;2023-12-07T18:35:00;97180.0;;;
68446;BMP280;35789;48.414;12.768;2023-12-07T18:40:00;97170.0;;;
68446;BMP280;35789;48.414;12.768;2023-12-07T18:45:00;97180.0;;;
68446;BMP280;35789;48.414;12.768;2023-12-07T18:50:00;97160.0;;;
68446;BMP280;35789;48.414;12.768;2023-12-07T18:55:00;97150.0;;;
68446;BMP280;35789;48.414;12.768;2023-12-07T19:00:00;97140.0;;;
68446;BMP280;35789;48.414;12.768;2023-12-07T19:05:00;97130.0;;;
68446;BMP280;35789;48.414;12.768;2023-12-07T19:10:00;97120.0;;;
68446;BMP280;35789;48.414;12.768;2023-12-07T19:15:00;97120.0;;;
68446;BMP280;35789;48.414;12.768;2023-12-07T19:20:00;97110.0;;;
68446;BMP280;35789;48.414;12.768;2023-12-07T19:25:00;97110.0;;;
68446;BMP280;35789;48.414;12.768;2023-12-07T19:30:00;97100.0;;;
68446;BMP280;35789;48.414;12.768;2023-12-07T19:35:00;97100.0;;;
68446;BMP280;35789;48.414;12.768;2023-12-07T19:40:00;97090.0;;;
68446;BMP280;35789;48.414;12.768;2023-12-07T19:45:00;97100.0;;;
68446;BMP280;35789;48.414;12.768;2023-12-07T19:50:00;97090.0;;;
68446;BMP280;35789;48.414;12.768;2023-12-07T19:55:00;97080.0;;;
68446;BMP280;35789;48.414;12.768;2023-12-07T20:00:00;97070.0;;;
68446;BMP280;35789;48.414;12.768;2023-12-07T20:05:00;97070.0;;;
68446;BMP280;35789;48.414;12.768;2023-12-07T20:10:00;97070.0;;;
68446;BMP280;35789;48.414;12.768;2023-12-07T20:15:02;97070.0;;;
68446;BMP280;35789;48.414;12.768;2023-12-07T20:20:08;97070.0;;;
68446;BMP280;35789;48.414;12.768;2023-12-07T20:25:01;97070.0;;;
68446;BMP280;35789;48.414;12.768;2023-12-07T20:35:00;97060.0;;;
68446;BMP280;35789;48.414;12.768;2023-12-07T20:40:00;97050.0;;;
68446;BMP280;35789;48.414;12.768;2023-12-07T20:45:02;97050.0;;;
68446;BMP280;35789;48.414;12.768;2023-12-07T20:50:01;97040.0;;;
68446;BMP280;35789;48.414;12.768;2023-12-07T20:55:00;97030.0;;;
68446;BMP280;35789;48.414;12.768;2023-12-07T21:00:00;97020.0;;;
68446;BMP280;35789;48.414;12.768;2023-12-07T21:05:00;97000.0;;;
68446;BMP280;35789;48.414;12.768;2023-12-07T21:10:00;96990.0;;;
68446;BMP280;35789;48.414;12.768;2023-12-07T21:15:00;96970.0;;;
68446;BMP280;35789;48.414;12.768;2023-12-07T21:20:00;96980.0;;;
68446;BMP280;35789;48.414;12.768;2023-12-07T21:25:02;96970.0;;;
68446;BMP280;35789;48.414;12.768;2023-12-07T21:30:05;96980.0;;;
68446;BMP280;35789;48.414;12.768;2023-12-07T21:35:00;96970.0;;;
68446;BMP280;35789;48.414;12.768;2023-12-07T21:40:00;96970.0;;;
68446;BMP280;35789;48.414;12.768;2023-12-07T21:45:00;96980.0;;;
68446;BMP280;35789;48.414;12.768;2023-12-07T21:50:00;96970.0;;;
68446;BMP280;35789;48.414;12.768;2023-12-07T21:55:00;96950.0;;;
68446;BMP280;35789;48.414;12.768;2023-12-07T22:00:00;96950.0;;;
68446;BMP280;35789;48.414;12.768;2023-12-07T22:05:00;96970.0;;;
68446;BMP280;35789;48.414;12.768;2023-12-07T22:10:00;96970.0;;;
68446;BMP280;35789;48.414;12.768;2023-12-07T22:15:00;96960.0;;;
68446;BMP280;35789;48.414;12.768;2023-12-07T22:20:00;96960.0;;;
68446;BMP280;35789;48.414;12.768;2023-12-07T22:25:00;96950.0;;;
68446;BMP280;35789;48.414;12.768;2023-12-07T22:30:00;96950.0;;;
68446;BMP280;35789;48.414;12.768;2023-12-07T22:35:00;96930.0;;;
68446;BMP280;35789;48.414;12.768;2023-12-07T22:40:00;96910.0;;;
68446;BMP280;35789;48.414;12.768;2023-12-07T22:45:00;96910.0;;;
68446;BMP280;35789;48.414;12.768;2023-12-07T22:50:00;96900.0;;;
68446;BMP280;35789;48.414;12.768;2023-12-07T22:55:00;96890.0;;;
68446;BMP280;35789;48.414;12.768;2023-12-07T23:00:00;96880.0;;;
68446;BMP280;35789;48.414;12.768;2023-12-07T23:05:00;96880.0;;;
68446;BMP280;35789;48.414;12.768;2023-12-07T23:10:00;96860.0;;;
68446;BMP280;35789;48.414;12.768;2023-12-07T23:15:00;96850.0;;;
68446;BMP280;35789;48.414;12.768;2023-12-07T23:20:00;96840.0;;;
68446;BMP280;35789;48.414;12.768;2023-12-07T23:25:00;96840.0;;;
68446;BMP280;35789;48.414;12.768;2023-12-07T23:30:00;96820.0;;;
68446;BMP280;35789;48.414;12.768;2023-12-07T23:35:00;96810.0;;;
68446;BMP280;35789;48.414;12.768;2023-12-07T23:40:00;96780.0;;;
68446;BMP280;35789;48.414;12.768;2023-12-07T23:45:00;96760.0;;;
68446;BMP280;35789;48.414;12.768;2023-12-07T23:50:00;96760.0;;;
68446;BMP280;35789;48.414;12.768;2023-12-07T23:55:00;96780.0;;;
